sensor_id;sensor_type;location;lat;lon;timestamp;P1;durP1;ratioP1;P2;durP2;ratioP2
22774;SDS011;11554;51.106;3.684;2024-01-07T00:00:00;10.60;;;6.40;;
22774;SDS011;11554;51.106;3.684;2024-01-07T00:05:00;12.20;;;6.70;;
22774;SDS011;11554;51.106;3.684;2024-01-07T00:10:00;12.20;;;6.70;;
22774;SDS011;11554;51.106;3.684;2024-01-07T00:15:00;10.70;;;7.10;;
22774;SDS011;11554;51.106;3.684;2024-01-07T00:20:00;10.70;;;7.10;;
22774;SDS011;11554;51.106;3.684;2024-01-07T00:25:00;8.50;;;6.30;;
22774;SDS011;11554;51.106;3.684;2024-01-07T00:30:00;8.50;;;6.30;;
22774;SDS011;11554;51.106;3.684;2024-01-07T00:35:00;10.30;;;6.50;;
22774;SDS011;11554;51.106;3.684;2024-01-07T00:40:00;10.30;;;6.50;;
22774;SDS011;11554;51.106;3.684;2024-01-07T00:45:00;9.50;;;6.50;;
22774;SDS011;11554;51.106;3.684;2024-01-07T00:50:00;9.50;;;6.50;;
22774;SDS011;11554;51.106;3.684;2024-01-07T00:55:00;10.30;;;6.70;;
22774;SDS011;11554;51.106;3.684;2024-01-07T01:00:04;10.30;;;6.70;;
22774;SDS011;11554;51.106;3.684;2024-01-07T01:05:00;10.70;;;6.30;;
22774;SDS011;11554;51.106;3.684;2024-01-07T01:10:00;10.70;;;6.30;;
22774;SDS011;11554;51.106;3.684;2024-01-07T01:15:00;9.70;;;6.00;;
22774;SDS011;11554;51.106;3.684;2024-01-07T01:20:00;9.70;;;6.00;;
22774;SDS011;11554;51.106;3.684;2024-01-07T01:25:00;11.60;;;6.60;;
22774;SDS011;11554;51.106;3.684;2024-01-07T01:30:00;11.60;;;6.60;;
22774;SDS011;11554;51.106;3.684;2024-01-07T01:35:00;8.90;;;5.20;;
22774;SDS011;11554;51.106;3.684;2024-01-07T01:40:00;8.90;;;5.20;;
22774;SDS011;11554;51.106;3.684;2024-01-07T01:45:00;9.20;;;5.10;;
22774;SDS011;11554;51.106;3.684;2024-01-07T01:50:00;9.20;;;5.10;;
22774;SDS011;11554;51.106;3.684;2024-01-07T01:55:00;10.30;;;6.00;;
22774;SDS011;11554;51.106;3.684;2024-01-07T02:00:02;10.30;;;6.00;;
22774;SDS011;11554;51.106;3.684;2024-01-07T02:05:00;10.10;;;7.00;;
22774;SDS011;11554;51.106;3.684;2024-01-07T02:10:00;10.10;;;7.00;;
22774;SDS011;11554;51.106;3.684;2024-01-07T02:15:00;10.60;;;7.20;;
22774;SDS011;11554;51.106;3.684;2024-01-07T02:20:00;10.60;;;7.20;;
22774;SDS011;11554;51.106;3.684;2024-01-07T02:25:00;11.10;;;7.40;;
22774;SDS011;11554;51.106;3.684;2024-01-07T02:30:00;11.10;;;7.40;;
22774;SDS011;11554;51.106;3.684;2024-01-07T02:35:00;11.20;;;7.50;;
22774;SDS011;11554;51.106;3.684;2024-01-07T02:40:00;11.20;;;7.50;;
22774;SDS011;11554;51.106;3.684;2024-01-07T02:45:00;11.80;;;7.80;;
22774;SDS011;11554;51.106;3.684;2024-01-07T02:50:00;11.80;;;7.80;;
22774;SDS011;11554;51.106;3.684;2024-01-07T02:55:00;12.30;;;8.90;;
22774;SDS011;11554;51.106;3.684;2024-01-07T03:00:00;12.30;;;8.90;;
22774;SDS011;11554;51.106;3.684;2024-01-07T03:05:00;15.60;;;10.40;;
22774;SDS011;11554;51.106;3.684;2024-01-07T03:10:00;15.60;;;10.40;;
22774;SDS011;11554;51.106;3.684;2024-01-07T03:15:00;19.60;;;13.40;;
22774;SDS011;11554;51.106;3.684;2024-01-07T03:20:00;19.60;;;13.40;;
22774;SDS011;11554;51.106;3.684;2024-01-07T03:25:00;21.10;;;15.10;;
22774;SDS011;11554;51.106;3.684;2024-01-07T03:30:00;21.10;;;15.10;;
22774;SDS011;11554;51.106;3.684;2024-01-07T03:35:00;19.60;;;15.30;;
22774;SDS011;11554;51.106;3.684;2024-01-07T03:40:00;19.60;;;15.30;;
22774;SDS011;11554;51.106;3.684;2024-01-07T03:45:00;20.70;;;15.40;;
22774;SDS011;11554;51.106;3.684;2024-01-07T03:50:00;20.70;;;15.40;;
22774;SDS011;11554;51.106;3.684;2024-01-07T03:55:00;20.60;;;15.50;;
22774;SDS011;11554;51.106;3.684;2024-01-07T04:00:00;20.60;;;15.50;;
22774;SDS011;11554;51.106;3.684;2024-01-07T04:05:00;20.50;;;16.40;;
22774;SDS011;11554;51.106;3.684;2024-01-07T04:10:00;20.50;;;16.40;;
22774;SDS011;11554;51.106;3.684;2024-01-07T04:15:00;19.80;;;15.30;;
22774;SDS011;11554;51.106;3.684;2024-01-07T04:20:00;19.80;;;15.30;;
22774;SDS011;11554;51.106;3.684;2024-01-07T04:25:00;20.40;;;15.70;;
22774;SDS011;11554;51.106;3.684;2024-01-07T04:30:00;20.40;;;15.70;;
22774;SDS011;11554;51.106;3.684;2024-01-07T04:35:00;21.60;;;14.60;;
22774;SDS011;11554;51.106;3.684;2024-01-07T04:40:01;21.60;;;14.60;;
22774;SDS011;11554;51.106;3.684;2024-01-07T04:45:00;15.60;;;12.10;;
22774;SDS011;11554;51.106;3.684;2024-01-07T04:50:01;15.60;;;12.10;;
22774;SDS011;11554;51.106;3.684;2024-01-07T04:55:00;15.20;;;12.20;;
22774;SDS011;11554;51.106;3.684;2024-01-07T05:00:02;15.20;;;12.20;;
22774;SDS011;11554;51.106;3.684;2024-01-07T05:05:00;13.20;;;10.60;;
22774;SDS011;11554;51.106;3.684;2024-01-07T05:10:00;13.20;;;10.60;;
22774;SDS011;11554;51.106;3.684;2024-01-07T05:15:00;13.30;;;10.60;;
22774;SDS011;11554;51.106;3.684;2024-01-07T05:20:00;13.30;;;10.60;;
22774;SDS011;11554;51.106;3.684;2024-01-07T05:25:00;11.40;;;9.20;;
22774;SDS011;11554;51.106;3.684;2024-01-07T05:30:00;11.40;;;9.20;;
22774;SDS011;11554;51.106;3.684;2024-01-07T05:35:00;11.90;;;9.10;;
22774;SDS011;11554;51.106;3.684;2024-01-07T05:40:00;11.90;;;9.10;;
22774;SDS011;11554;51.106;3.684;2024-01-07T05:45:00;12.90;;;9.60;;
22774;SDS011;11554;51.106;3.684;2024-01-07T05:50:00;12.90;;;9.60;;
22774;SDS011;11554;51.106;3.684;2024-01-07T05:55:00;12.20;;;9.70;;
22774;SDS011;11554;51.106;3.684;2024-01-07T06:00:00;12.20;;;9.70;;
22774;SDS011;11554;51.106;3.684;2024-01-07T06:05:01;12.80;;;9.30;;
22774;SDS011;11554;51.106;3.684;2024-01-07T06:10:00;12.80;;;9.30;;
22774;SDS011;11554;51.106;3.684;2024-01-07T06:15:00;13.20;;;9.90;;
22774;SDS011;11554;51.106;3.684;2024-01-07T06:20:00;13.20;;;9.90;;
22774;SDS011;11554;51.106;3.684;2024-01-07T06:25:00;14.30;;;10.70;;
22774;SDS011;11554;51.106;3.684;2024-01-07T06:30:00;14.30;;;10.70;;
22774;SDS011;11554;51.106;3.684;2024-01-07T06:35:00;14.70;;;11.40;;
22774;SDS011;11554;51.106;3.684;2024-01-07T06:40:00;14.70;;;11.40;;
22774;SDS011;11554;51.106;3.684;2024-01-07T06:45:00;14.80;;;11.80;;
22774;SDS011;11554;51.106;3.684;2024-01-07T06:50:00;14.80;;;11.80;;
22774;SDS011;11554;51.106;3.684;2024-01-07T06:55:00;15.80;;;11.80;;
22774;SDS011;11554;51.106;3.684;2024-01-07T07:00:00;15.80;;;11.80;;
22774;SDS011;11554;51.106;3.684;2024-01-07T07:05:00;17.10;;;12.30;;
22774;SDS011;11554;51.106;3.684;2024-01-07T07:10:00;17.10;;;12.30;;
22774;SDS011;11554;51.106;3.684;2024-01-07T07:15:00;16.50;;;12.70;;
22774;SDS011;11554;51.106;3.684;2024-01-07T07:20:00;16.50;;;12.70;;
22774;SDS011;11554;51.106;3.684;2024-01-07T07:25:00;19.30;;;14.10;;
22774;SDS011;11554;51.106;3.684;2024-01-07T07:30:00;19.30;;;14.10;;
22774;SDS011;11554;51.106;3.684;2024-01-07T07:35:00;19.70;;;13.80;;
22774;SDS011;11554;51.106;3.684;2024-01-07T07:40:00;19.70;;;13.80;;
22774;SDS011;11554;51.106;3.684;2024-01-07T07:45:00;19.70;;;14.00;;
22774;SDS011;11554;51.106;3.684;2024-01-07T07:50:00;19.70;;;14.00;;
22774;SDS011;11554;51.106;3.684;2024-01-07T07:55:00;22.30;;;15.10;;
22774;SDS011;11554;51.106;3.684;2024-01-07T08:00:00;22.30;;;15.10;;
22774;SDS011;11554;51.106;3.684;2024-01-07T08:05:00;28.00;;;17.30;;
22774;SDS011;11554;51.106;3.684;2024-01-07T08:10:00;28.00;;;17.30;;
22774;SDS011;11554;51.106;3.684;2024-01-07T08:15:00;25.80;;;16.80;;
22774;SDS011;11554;51.106;3.684;2024-01-07T08:20:00;25.80;;;16.80;;
22774;SDS011;11554;51.106;3.684;2024-01-07T08:25:00;26.70;;;18.50;;
22774;SDS011;11554;51.106;3.684;2024-01-07T08:30:00;26.70;;;18.50;;
22774;SDS011;11554;51.106;3.684;2024-01-07T08:35:00;30.10;;;19.10;;
22774;SDS011;11554;51.106;3.684;2024-01-07T08:40:00;30.10;;;19.10;;
22774;SDS011;11554;51.106;3.684;2024-01-07T08:45:00;29.00;;;18.20;;
22774;SDS011;11554;51.106;3.684;2024-01-07T08:50:00;29.00;;;18.20;;
22774;SDS011;11554;51.106;3.684;2024-01-07T08:55:00;28.00;;;17.40;;
22774;SDS011;11554;51.106;3.684;2024-01-07T09:00:00;28.00;;;17.40;;
22774;SDS011;11554;51.106;3.684;2024-01-07T09:05:00;33.60;;;19.80;;
22774;SDS011;11554;51.106;3.684;2024-01-07T09:10:00;33.60;;;19.80;;
22774;SDS011;11554;51.106;3.684;2024-01-07T09:15:00;31.80;;;19.80;;
22774;SDS011;11554;51.106;3.684;2024-01-07T09:20:00;31.80;;;19.80;;
22774;SDS011;11554;51.106;3.684;2024-01-07T09:25:02;28.20;;;18.30;;
22774;SDS011;11554;51.106;3.684;2024-01-07T09:30:00;28.20;;;18.30;;
22774;SDS011;11554;51.106;3.684;2024-01-07T09:35:00;26.80;;;16.60;;
22774;SDS011;11554;51.106;3.684;2024-01-07T09:40:00;26.80;;;16.60;;
22774;SDS011;11554;51.106;3.684;2024-01-07T09:45:02;30.10;;;19.30;;
22774;SDS011;11554;51.106;3.684;2024-01-07T09:50:00;30.10;;;19.30;;
22774;SDS011;11554;51.106;3.684;2024-01-07T09:55:03;27.10;;;17.70;;
22774;SDS011;11554;51.106;3.684;2024-01-07T10:00:01;27.10;;;17.70;;
22774;SDS011;11554;51.106;3.684;2024-01-07T10:05:00;28.20;;;19.00;;
22774;SDS011;11554;51.106;3.684;2024-01-07T10:10:09;28.20;;;19.00;;
22774;SDS011;11554;51.106;3.684;2024-01-07T10:15:00;27.30;;;18.70;;
22774;SDS011;11554;51.106;3.684;2024-01-07T10:20:00;27.30;;;18.70;;
22774;SDS011;11554;51.106;3.684;2024-01-07T10:25:00;24.00;;;17.00;;
22774;SDS011;11554;51.106;3.684;2024-01-07T10:30:01;24.00;;;17.00;;
22774;SDS011;11554;51.106;3.684;2024-01-07T10:35:02;22.30;;;14.60;;
22774;SDS011;11554;51.106;3.684;2024-01-07T10:40:00;22.30;;;14.60;;
22774;SDS011;11554;51.106;3.684;2024-01-07T10:45:00;16.80;;;11.90;;
22774;SDS011;11554;51.106;3.684;2024-01-07T10:50:01;16.80;;;11.90;;
22774;SDS011;11554;51.106;3.684;2024-01-07T10:55:08;23.80;;;16.70;;
22774;SDS011;11554;51.106;3.684;2024-01-07T11:00:00;23.80;;;16.70;;
22774;SDS011;11554;51.106;3.684;2024-01-07T11:05:05;24.90;;;17.90;;
22774;SDS011;11554;51.106;3.684;2024-01-07T11:10:06;24.90;;;17.90;;
22774;SDS011;11554;51.106;3.684;2024-01-07T11:15:00;25.70;;;17.40;;
22774;SDS011;11554;51.106;3.684;2024-01-07T11:20:00;25.70;;;17.40;;
22774;SDS011;11554;51.106;3.684;2024-01-07T11:25:01;23.70;;;17.10;;
22774;SDS011;11554;51.106;3.684;2024-01-07T11:30:02;23.70;;;17.10;;
22774;SDS011;11554;51.106;3.684;2024-01-07T11:35:00;25.70;;;17.40;;
22774;SDS011;11554;51.106;3.684;2024-01-07T11:40:04;25.70;;;17.40;;
22774;SDS011;11554;51.106;3.684;2024-01-07T11:45:00;27.60;;;18.20;;
22774;SDS011;11554;51.106;3.684;2024-01-07T11:50:00;27.60;;;18.20;;
22774;SDS011;11554;51.106;3.684;2024-01-07T11:55:00;26.80;;;19.20;;
22774;SDS011;11554;51.106;3.684;2024-01-07T12:00:00;26.80;;;19.20;;
22774;SDS011;11554;51.106;3.684;2024-01-07T12:05:00;21.00;;;15.20;;
22774;SDS011;11554;51.106;3.684;2024-01-07T12:10:00;21.00;;;15.20;;
22774;SDS011;11554;51.106;3.684;2024-01-07T12:15:00;21.60;;;16.20;;
22774;SDS011;11554;51.106;3.684;2024-01-07T12:20:00;21.60;;;16.20;;
22774;SDS011;11554;51.106;3.684;2024-01-07T12:25:01;18.40;;;14.00;;
22774;SDS011;11554;51.106;3.684;2024-01-07T12:30:00;18.40;;;14.00;;
22774;SDS011;11554;51.106;3.684;2024-01-07T12:35:01;20.50;;;14.40;;
22774;SDS011;11554;51.106;3.684;2024-01-07T12:40:00;20.50;;;14.40;;
22774;SDS011;11554;51.106;3.684;2024-01-07T12:45:00;18.80;;;12.50;;
22774;SDS011;11554;51.106;3.684;2024-01-07T12:50:00;18.80;;;12.50;;
22774;SDS011;11554;51.106;3.684;2024-01-07T12:55:00;22.70;;;17.10;;
22774;SDS011;11554;51.106;3.684;2024-01-07T13:00:01;22.70;;;17.10;;
22774;SDS011;11554;51.106;3.684;2024-01-07T13:05:00;21.40;;;16.30;;
22774;SDS011;11554;51.106;3.684;2024-01-07T13:10:00;21.40;;;16.30;;
22774;SDS011;11554;51.106;3.684;2024-01-07T13:15:00;22.30;;;15.90;;
22774;SDS011;11554;51.106;3.684;2024-01-07T13:20:00;22.30;;;15.90;;
22774;SDS011;11554;51.106;3.684;2024-01-07T13:25:00;18.80;;;14.70;;
22774;SDS011;11554;51.106;3.684;2024-01-07T13:30:00;18.80;;;14.70;;
22774;SDS011;11554;51.106;3.684;2024-01-07T13:35:00;15.70;;;12.40;;
22774;SDS011;11554;51.106;3.684;2024-01-07T13:40:00;15.70;;;12.40;;
22774;SDS011;11554;51.106;3.684;2024-01-07T13:45:00;15.90;;;12.30;;
22774;SDS011;11554;51.106;3.684;2024-01-07T13:50:00;15.90;;;12.30;;
22774;SDS011;11554;51.106;3.684;2024-01-07T13:55:00;16.70;;;12.80;;
22774;SDS011;11554;51.106;3.684;2024-01-07T14:00:00;16.70;;;12.80;;
22774;SDS011;11554;51.106;3.684;2024-01-07T14:05:00;17.40;;;12.60;;
22774;SDS011;11554;51.106;3.684;2024-01-07T14:10:00;17.40;;;12.60;;
22774;SDS011;11554;51.106;3.684;2024-01-07T14:15:00;18.00;;;13.30;;
22774;SDS011;11554;51.106;3.684;2024-01-07T14:20:00;18.00;;;13.30;;
22774;SDS011;11554;51.106;3.684;2024-01-07T14:25:00;20.60;;;15.50;;
22774;SDS011;11554;51.106;3.684;2024-01-07T14:30:00;20.60;;;15.50;;
22774;SDS011;11554;51.106;3.684;2024-01-07T14:35:00;16.70;;;12.50;;
22774;SDS011;11554;51.106;3.684;2024-01-07T14:40:00;16.70;;;12.50;;
22774;SDS011;11554;51.106;3.684;2024-01-07T14:45:00;16.60;;;12.80;;
22774;SDS011;11554;51.106;3.684;2024-01-07T14:50:00;16.60;;;12.80;;
22774;SDS011;11554;51.106;3.684;2024-01-07T14:55:00;15.90;;;11.90;;
22774;SDS011;11554;51.106;3.684;2024-01-07T15:00:00;15.90;;;11.90;;
22774;SDS011;11554;51.106;3.684;2024-01-07T15:05:00;18.20;;;13.40;;
22774;SDS011;11554;51.106;3.684;2024-01-07T15:10:00;18.20;;;13.40;;
22774;SDS011;11554;51.106;3.684;2024-01-07T15:15:00;16.40;;;11.60;;
22774;SDS011;11554;51.106;3.684;2024-01-07T15:20:00;16.40;;;11.60;;
22774;SDS011;11554;51.106;3.684;2024-01-07T15:25:00;18.30;;;12.50;;
22774;SDS011;11554;51.106;3.684;2024-01-07T15:30:00;18.30;;;12.50;;
22774;SDS011;11554;51.106;3.684;2024-01-07T15:35:00;14.90;;;11.70;;
22774;SDS011;11554;51.106;3.684;2024-01-07T15:40:00;14.90;;;11.70;;
22774;SDS011;11554;51.106;3.684;2024-01-07T15:45:00;25.60;;;16.50;;
22774;SDS011;11554;51.106;3.684;2024-01-07T15:50:00;25.60;;;16.50;;
22774;SDS011;11554;51.106;3.684;2024-01-07T15:55:00;16.60;;;12.60;;
22774;SDS011;11554;51.106;3.684;2024-01-07T16:00:00;16.60;;;12.60;;
22774;SDS011;11554;51.106;3.684;2024-01-07T16:05:00;14.00;;;10.20;;
22774;SDS011;11554;51.106;3.684;2024-01-07T16:10:00;14.00;;;10.20;;
22774;SDS011;11554;51.106;3.684;2024-01-07T16:15:00;11.50;;;8.80;;
22774;SDS011;11554;51.106;3.684;2024-01-07T16:20:00;11.50;;;8.80;;
22774;SDS011;11554;51.106;3.684;2024-01-07T16:25:00;11.70;;;8.80;;
22774;SDS011;11554;51.106;3.684;2024-01-07T16:30:00;11.70;;;8.80;;
22774;SDS011;11554;51.106;3.684;2024-01-07T16:35:00;12.00;;;8.80;;
22774;SDS011;11554;51.106;3.684;2024-01-07T16:40:00;12.00;;;8.80;;
22774;SDS011;11554;51.106;3.684;2024-01-07T16:45:00;7.50;;;4.80;;
22774;SDS011;11554;51.106;3.684;2024-01-07T16:50:00;7.50;;;4.80;;
22774;SDS011;11554;51.106;3.684;2024-01-07T16:55:00;12.40;;;7.60;;
22774;SDS011;11554;51.106;3.684;2024-01-07T17:00:00;12.40;;;7.60;;
22774;SDS011;11554;51.106;3.684;2024-01-07T17:05:00;9.00;;;6.40;;
22774;SDS011;11554;51.106;3.684;2024-01-07T17:10:01;9.00;;;6.40;;
22774;SDS011;11554;51.106;3.684;2024-01-07T17:15:02;7.00;;;4.40;;
22774;SDS011;11554;51.106;3.684;2024-01-07T17:20:00;7.00;;;4.40;;
22774;SDS011;11554;51.106;3.684;2024-01-07T17:25:00;5.20;;;3.70;;
22774;SDS011;11554;51.106;3.684;2024-01-07T17:30:00;5.20;;;3.70;;
22774;SDS011;11554;51.106;3.684;2024-01-07T17:35:00;5.40;;;3.60;;
22774;SDS011;11554;51.106;3.684;2024-01-07T17:40:00;5.40;;;3.60;;
22774;SDS011;11554;51.106;3.684;2024-01-07T17:45:00;7.20;;;4.30;;
22774;SDS011;11554;51.106;3.684;2024-01-07T17:50:00;7.20;;;4.30;;
22774;SDS011;11554;51.106;3.684;2024-01-07T17:55:00;7.60;;;3.60;;
22774;SDS011;11554;51.106;3.684;2024-01-07T18:00:01;7.60;;;3.60;;
22774;SDS011;11554;51.106;3.684;2024-01-07T18:05:00;6.00;;;3.80;;
22774;SDS011;11554;51.106;3.684;2024-01-07T18:10:00;6.00;;;3.80;;
22774;SDS011;11554;51.106;3.684;2024-01-07T18:15:00;5.40;;;2.60;;
22774;SDS011;11554;51.106;3.684;2024-01-07T18:20:00;5.40;;;2.60;;
22774;SDS011;11554;51.106;3.684;2024-01-07T18:25:00;5.50;;;3.60;;
22774;SDS011;11554;51.106;3.684;2024-01-07T18:30:00;5.50;;;3.60;;
22774;SDS011;11554;51.106;3.684;2024-01-07T18:35:00;6.30;;;3.50;;
22774;SDS011;11554;51.106;3.684;2024-01-07T18:40:00;6.30;;;3.50;;
22774;SDS011;11554;51.106;3.684;2024-01-07T18:45:00;7.60;;;4.10;;
22774;SDS011;11554;51.106;3.684;2024-01-07T18:50:00;7.60;;;4.10;;
22774;SDS011;11554;51.106;3.684;2024-01-07T18:55:00;7.30;;;3.60;;
22774;SDS011;11554;51.106;3.684;2024-01-07T19:00:00;7.30;;;3.60;;
22774;SDS011;11554;51.106;3.684;2024-01-07T19:05:00;4.60;;;2.10;;
22774;SDS011;11554;51.106;3.684;2024-01-07T19:10:00;4.60;;;2.10;;
22774;SDS011;11554;51.106;3.684;2024-01-07T19:15:00;6.00;;;3.20;;
22774;SDS011;11554;51.106;3.684;2024-01-07T19:20:00;6.00;;;3.20;;
22774;SDS011;11554;51.106;3.684;2024-01-07T19:25:00;6.70;;;3.10;;
22774;SDS011;11554;51.106;3.684;2024-01-07T19:30:00;6.70;;;3.10;;
22774;SDS011;11554;51.106;3.684;2024-01-07T19:35:00;6.80;;;4.00;;
22774;SDS011;11554;51.106;3.684;2024-01-07T19:40:01;6.80;;;4.00;;
22774;SDS011;11554;51.106;3.684;2024-01-07T19:45:00;10.90;;;5.80;;
22774;SDS011;11554;51.106;3.684;2024-01-07T19:50:00;10.90;;;5.80;;
22774;SDS011;11554;51.106;3.684;2024-01-07T19:55:00;4.70;;;2.90;;
22774;SDS011;11554;51.106;3.684;2024-01-07T20:00:00;4.70;;;2.90;;
22774;SDS011;11554;51.106;3.684;2024-01-07T20:05:00;9.20;;;5.20;;
22774;SDS011;11554;51.106;3.684;2024-01-07T20:10:00;9.20;;;5.20;;
22774;SDS011;11554;51.106;3.684;2024-01-07T20:15:00;10.60;;;4.80;;
22774;SDS011;11554;51.106;3.684;2024-01-07T20:20:00;10.60;;;4.80;;
22774;SDS011;11554;51.106;3.684;2024-01-07T20:25:00;11.10;;;6.10;;
22774;SDS011;11554;51.106;3.684;2024-01-07T20:30:00;11.10;;;6.10;;
22774;SDS011;11554;51.106;3.684;2024-01-07T20:35:00;10.10;;;4.90;;
22774;SDS011;11554;51.106;3.684;2024-01-07T20:40:00;10.10;;;4.90;;
22774;SDS011;11554;51.106;3.684;2024-01-07T20:45:00;7.20;;;4.80;;
22774;SDS011;11554;51.106;3.684;2024-01-07T20:50:00;7.20;;;4.80;;
22774;SDS011;11554;51.106;3.684;2024-01-07T20:55:00;9.20;;;5.50;;
22774;SDS011;11554;51.106;3.684;2024-01-07T21:00:00;9.20;;;5.50;;
22774;SDS011;11554;51.106;3.684;2024-01-07T21:05:00;8.60;;;5.20;;
22774;SDS011;11554;51.106;3.684;2024-01-07T21:10:00;8.60;;;5.20;;
22774;SDS011;11554;51.106;3.684;2024-01-07T21:15:00;8.40;;;5.20;;
22774;SDS011;11554;51.106;3.684;2024-01-07T21:20:00;8.40;;;5.20;;
22774;SDS011;11554;51.106;3.684;2024-01-07T21:25:00;7.40;;;4.50;;
22774;SDS011;11554;51.106;3.684;2024-01-07T21:30:00;7.40;;;4.50;;
22774;SDS011;11554;51.106;3.684;2024-01-07T21:35:00;11.60;;;6.00;;
22774;SDS011;11554;51.106;3.684;2024-01-07T21:40:00;11.60;;;6.00;;
22774;SDS011;11554;51.106;3.684;2024-01-07T21:45:00;11.30;;;6.10;;
22774;SDS011;11554;51.106;3.684;2024-01-07T21:50:00;11.30;;;6.10;;
22774;SDS011;11554;51.106;3.684;2024-01-07T21:55:00;9.60;;;5.40;;
22774;SDS011;11554;51.106;3.684;2024-01-07T22:00:00;9.60;;;5.40;;
22774;SDS011;11554;51.106;3.684;2024-01-07T22:05:00;9.30;;;5.10;;
22774;SDS011;11554;51.106;3.684;2024-01-07T22:10:00;9.30;;;5.10;;
22774;SDS011;11554;51.106;3.684;2024-01-07T22:15:01;9.90;;;6.00;;
22774;SDS011;11554;51.106;3.684;2024-01-07T22:20:00;9.90;;;6.00;;
22774;SDS011;11554;51.106;3.684;2024-01-07T22:25:00;9.80;;;5.10;;
22774;SDS011;11554;51.106;3.684;2024-01-07T22:30:00;9.80;;;5.10;;
22774;SDS011;11554;51.106;3.684;2024-01-07T22:35:00;10.20;;;6.00;;
22774;SDS011;11554;51.106;3.684;2024-01-07T22:40:00;10.20;;;6.00;;
22774;SDS011;11554;51.106;3.684;2024-01-07T22:45:00;9.70;;;5.90;;
22774;SDS011;11554;51.106;3.684;2024-01-07T22:50:00;9.70;;;5.90;;
22774;SDS011;11554;51.106;3.684;2024-01-07T22:55:00;7.70;;;3.90;;
22774;SDS011;11554;51.106;3.684;2024-01-07T23:00:00;7.80;;;4.50;;
22774;SDS011;11554;51.106;3.684;2024-01-07T23:05:00;7.80;;;4.50;;
22774;SDS011;11554;51.106;3.684;2024-01-07T23:10:00;9.30;;;5.30;;
22774;SDS011;11554;51.106;3.684;2024-01-07T23:15:00;9.30;;;5.30;;
22774;SDS011;11554;51.106;3.684;2024-01-07T23:20:00;11.20;;;5.60;;
22774;SDS011;11554;51.106;3.684;2024-01-07T23:25:00;11.20;;;5.60;;
22774;SDS011;11554;51.106;3.684;2024-01-07T23:30:00;10.70;;;5.50;;
22774;SDS011;11554;51.106;3.684;2024-01-07T23:35:00;10.70;;;5.50;;
22774;SDS011;11554;51.106;3.684;2024-01-07T23:40:00;8.20;;;5.00;;
22774;SDS011;11554;51.106;3.684;2024-01-07T23:45:00;8.20;;;5.00;;
22774;SDS011;11554;51.106;3.684;2024-01-07T23:50:00;8.00;;;4.90;;
22774;SDS011;11554;51.106;3.684;2024-01-07T23:55:00;8.00;;;4.90;;
